»·PEaware :: N7GL KRDD-KSJC

N7GL :: KRDD-KSJC

FLIGHT INFORMATION

Flight Status: Arrived
Operator: Privately registered:
United States
More flights under this callsign
Pilot: Georg L. (13308)
Aircraft: BEECH AIRCRAFT SUPER KING AIR 350
(B350)
More flights by this aircraft type
Origin: KRDD Redding Mun
United States
Destination: KSJC Mineta San Jose Intl
United States
More flights between these airports :: More routes between these airports
Route: CHBLI BRIXX2
File this flight plan on PilotEdge
Remarks:
Altitude:
(Current/Filed)
27,000ft
Speed:
(Current/Filed)
295kts
Departed: 13-Nov-20 09:03 AM
Arrived: 13-Nov-20 09:51 AM
Distance/Time
Traveled:
190nm/0:48
Distance/Time
To Go:
Arrived

Flight Plot

Page will automatically refresh every two minutes.

Flight plan parsing failed; only flown route is shown


Map Options




Map Legend


Flown Route
Filed Route
Departure Airport
Arrival Airport
Navaid (VOR, NDB)
Fix

Horizontal Profiles

Position Reports

Time Latitude Longitude Heading Altitude Ground
Speed
13-Nov-20 08:29 40.509615 -122.298077 2 462ft 0kts
13-Nov-20 08:29 40.509615 -122.298077 2 462ft 0kts
13-Nov-20 08:30 40.509615 -122.298077 2 462ft 0kts
13-Nov-20 08:31 40.509615 -122.298077 2 462ft 0kts
13-Nov-20 08:32 40.509615 -122.298077 2 462ft 0kts
13-Nov-20 08:33 40.509615 -122.298077 2 462ft 0kts
13-Nov-20 08:34 40.509615 -122.298077 2 462ft 0kts
13-Nov-20 08:35 40.509615 -122.298077 2 462ft 0kts
13-Nov-20 08:36 40.509615 -122.298077 2 462ft 0kts
13-Nov-20 08:37 40.509615 -122.298077 2 462ft 0kts
13-Nov-20 08:38 40.509615 -122.298077 2 462ft 0kts
13-Nov-20 08:39 40.509615 -122.298077 2 462ft 0kts
13-Nov-20 08:40 40.509615 -122.298077 2 462ft 0kts
13-Nov-20 08:41 40.509615 -122.298077 2 462ft 0kts
13-Nov-20 08:42 40.509615 -122.298077 2 462ft 0kts
13-Nov-20 08:43 40.509615 -122.298077 2 462ft 0kts
13-Nov-20 08:44 40.509615 -122.298077 2 462ft 0kts
13-Nov-20 08:45 40.509615 -122.298077 2 462ft 0kts
13-Nov-20 08:46 40.509615 -122.298077 2 462ft 0kts
13-Nov-20 08:47 40.509615 -122.298077 2 462ft 0kts
13-Nov-20 08:48 40.509615 -122.298077 2 462ft 0kts
13-Nov-20 08:49 40.509615 -122.298077 2 462ft 0kts
13-Nov-20 08:50 40.509615 -122.298077 2 462ft 0kts
13-Nov-20 08:51 40.509615 -122.298077 2 462ft 0kts
13-Nov-20 08:52 40.509615 -122.298077 2 462ft 0kts
13-Nov-20 08:53 40.509615 -122.298077 2 462ft 0kts
13-Nov-20 08:54 40.509615 -122.298077 2 462ft 0kts
13-Nov-20 08:55 40.509636 -122.298074 2 462ft 2kts
13-Nov-20 08:56 40.508660 -122.298589 178 462ft 6kts
13-Nov-20 08:57 40.507667 -122.298510 150 462ft 3kts
13-Nov-20 08:58 40.510796 -122.296307 0 462ft 19kts
13-Nov-20 08:59 40.517499 -122.296287 0 462ft 24kts
13-Nov-20 09:00 40.520271 -122.295882 86 462ft 0kts
13-Nov-20 09:01 40.520271 -122.295881 88 462ft 0kts
13-Nov-20 09:02 40.508890 -122.294834 179 593ft 121kts
13-Nov-20 09:03 40.467272 -122.296807 196 2022ft 178kts
13-Nov-20 09:04 40.419373 -122.308070 182 3982ft 167kts
13-Nov-20 09:05 40.373622 -122.309782 186 5912ft 164kts
13-Nov-20 09:06 40.329257 -122.314924 186 7736ft 164kts
13-Nov-20 09:07 40.284825 -122.322116 192 9614ft 161kts
13-Nov-20 09:08 40.239530 -122.328273 198 11414ft 166kts
13-Nov-20 09:09 40.192797 -122.334316 200 13183ft 172kts
13-Nov-20 09:10 40.144421 -122.340494 201 14977ft 178kts
13-Nov-20 09:11 40.094345 -122.346923 202 16739ft 185kts
13-Nov-20 09:12 40.042622 -122.353513 203 18497ft 190kts
13-Nov-20 09:13 39.989743 -122.360253 203 20072ft 195kts
13-Nov-20 09:14 39.934899 -122.367230 204 21666ft 200kts
13-Nov-20 09:15 39.878995 -122.374384 204 23103ft 210kts
13-Nov-20 09:16 39.814371 -122.383195 200 23112ft 251kts
13-Nov-20 09:17 39.751584 -122.389835 205 24975ft 209kts
13-Nov-20 09:18 39.692951 -122.397887 206 26164ft 215kts
13-Nov-20 09:19 39.632447 -122.405771 206 27111ft 229kts
13-Nov-20 09:20 39.562716 -122.415178 202 27119ft 268kts
13-Nov-20 09:21 39.486250 -122.424497 201 27139ft 283kts
13-Nov-20 09:22 39.406331 -122.434503 200 27137ft 296kts
13-Nov-20 09:23 39.323205 -122.444883 200 27137ft 305kts
13-Nov-20 09:24 39.237663 -122.455657 199 27136ft 313kts
13-Nov-20 09:25 39.150109 -122.466553 199 27136ft 319kts
13-Nov-20 09:26 39.061496 -122.477573 198 27137ft 323kts
13-Nov-20 09:27 38.971489 -122.488754 198 27149ft 326kts
13-Nov-20 09:28 38.881172 -122.499937 198 27157ft 328kts
13-Nov-20 09:29 38.790635 -122.511087 198 27182ft 327kts
13-Nov-20 09:30 38.699938 -122.522277 197 27183ft 328kts
13-Nov-20 09:31 38.609261 -122.533432 197 27190ft 329kts
13-Nov-20 09:32 38.516768 -122.537566 189 27211ft 337kts
13-Nov-20 09:33 38.420084 -122.534207 187 26171ft 369kts
13-Nov-20 09:34 38.316161 -122.530642 187 24184ft 365kts
13-Nov-20 09:35 38.218263 -122.527286 187 22133ft 342kts
13-Nov-20 09:36 38.122868 -122.524281 186 20152ft 346kts
13-Nov-20 09:37 38.027893 -122.520237 184 18149ft 339kts
13-Nov-20 09:38 37.935991 -122.512889 183 16218ft 322kts
13-Nov-20 09:39 37.848055 -122.506442 183 14861ft 313kts
13-Nov-20 09:40 37.762310 -122.500021 182 13994ft 305kts
13-Nov-20 09:41 37.688528 -122.450476 143 13978ft 310kts
13-Nov-20 09:42 37.629509 -122.367241 124 11947ft 320kts
13-Nov-20 09:43 37.583434 -122.275481 124 8744ft 301kts
13-Nov-20 09:44 37.540688 -122.191763 124 6308ft 268kts
13-Nov-20 09:45 37.502090 -122.116213 125 4081ft 247kts
13-Nov-20 09:46 37.466013 -122.045997 127 1977ft 227kts
13-Nov-20 09:47 37.428812 -122.002475 141 1572ft 156kts
13-Nov-20 09:48 37.397390 -121.967749 140 810ft 132kts
13-Nov-20 09:49 37.371649 -121.939655 142 97ft 103kts
13-Nov-20 09:50 37.362196 -121.930851 227 67ft 0kts
13-Nov-20 09:51 37.362196 -121.930851 227 67ft 0kts
13-Nov-20 09:52 37.361444 -121.932839 320 67ft 9kts
13-Nov-20 09:53 37.362379 -121.935067 46 67ft 3kts
13-Nov-20 09:54 37.362402 -121.935034 52 67ft 0kts
13-Nov-20 09:55 37.362402 -121.935034 52 67ft 0kts

Navigation Log

Ident Type
Flight plan parsing failed, navigation log unavailable